Time;durP1;ratioP1;P1;durP2;ratioP2;P2;SDS_P1;SDS_P2;PMS_P1;PMS_P2;Temp;Humidity;BMP_temperature;BMP_pressure;BME280_temperature;BME280_humidity;BME280_pressure;Samples;Min_cycle;Max_cycle;Signal;HPM_P1;HPM_P2
2023/02/20 00:00:29;;;;;;;6.80;4.00;;;9.20;99.90;;;;;;4926592;28;20228;-70
2023/02/20 00:02:56;;;;;;;5.73;4.00;;;9.10;99.90;;;;;;4932585;29;20254;-71
2023/02/20 00:05:22;;;;;;;4.97;4.10;;;8.90;99.90;;;;;;4931710;28;20451;-70
2023/02/20 00:07:47;;;;;;;6.47;3.40;;;8.90;99.90;;;;;;4917746;29;20462;-69
2023/02/20 00:10:14;;;;;;;4.20;3.43;;;8.90;99.90;;;;;;4934283;28;20478;-70
2023/02/20 00:12:40;;;;;;;5.27;4.03;;;9.00;99.90;;;;;;4927692;29;20310;-68
2023/02/20 00:15:07;;;;;;;6.47;3.93;;;9.00;99.90;;;;;;4916544;29;20614;-70
2023/02/20 00:17:32;;;;;;;4.50;3.33;;;8.90;99.90;;;;;;4927363;28;20224;-70
2023/02/20 00:19:58;;;;;;;5.17;4.03;;;8.70;99.90;;;;;;4933070;28;20474;-71
2023/02/20 00:22:24;;;;;;;5.93;3.47;;;8.70;99.90;;;;;;4933400;29;20231;-71
2023/02/20 00:24:50;;;;;;;7.17;3.07;;;8.70;99.90;;;;;;4920641;29;20697;-70
2023/02/20 00:27:17;;;;;;;4.17;3.10;;;8.70;99.90;;;;;;4922838;28;20494;-71
2023/02/20 00:29:46;;;;;;;6.50;3.57;;;8.60;99.90;;;;;;4944283;28;20479;-70
2023/02/20 00:32:15;;;;;;;5.17;3.90;;;8.60;99.90;;;;;;4929088;29;20498;-70
2023/02/20 00:34:41;;;;;;;4.77;3.53;;;8.60;99.90;;;;;;4924864;28;20472;-70
2023/02/20 00:37:07;;;;;;;5.90;4.07;;;8.50;99.90;;;;;;4925558;28;20483;-70
2023/02/20 00:39:33;;;;;;;6.50;4.20;;;8.30;99.90;;;;;;4945116;28;20294;-71
2023/02/20 00:41:59;;;;;;;10.90;5.50;;;8.30;99.90;;;;;;4947280;28;20470;-70
2023/02/20 00:44:25;;;;;;;9.07;4.00;;;8.30;99.90;;;;;;4925440;29;20228;-70
2023/02/20 00:46:50;;;;;;;5.33;3.50;;;8.20;99.90;;;;;;4922389;29;20266;-71
2023/02/20 00:49:16;;;;;;;4.77;3.23;;;8.10;99.90;;;;;;4912517;28;20463;-71
2023/02/20 00:51:45;;;;;;;6.43;3.90;;;8.10;99.90;;;;;;4922137;29;20283;-71
2023/02/20 00:54:11;;;;;;;6.57;4.07;;;8.20;99.90;;;;;;4921712;28;20883;-70
2023/02/20 00:56:37;;;;;;;8.40;4.53;;;8.20;99.90;;;;;;4921331;29;20380;-70
2023/02/20 00:59:02;;;;;;;7.23;4.27;;;8.10;99.90;;;;;;4907172;28;20533;-71
2023/02/20 01:01:28;;;;;;;7.30;3.93;;;8.00;99.90;;;;;;4953891;28;20311;-71
2023/02/20 01:03:54;;;;;;;7.07;4.37;;;8.10;99.90;;;;;;4927029;29;20232;-70
2023/02/20 01:06:20;;;;;;;6.13;4.47;;;8.00;99.90;;;;;;4931709;29;20771;-70
2023/02/20 01:08:45;;;;;;;9.17;4.30;;;7.90;99.90;;;;;;4926069;29;20246;-71
2023/02/20 01:11:11;;;;;;;9.60;4.10;;;7.80;99.90;;;;;;4926634;28;20722;-71
2023/02/20 01:13:37;;;;;;;4.80;3.67;;;7.80;99.90;;;;;;4920936;29;20591;-70
2023/02/20 01:16:06;;;;;;;6.07;3.50;;;7.80;99.90;;;;;;4922490;28;20301;-70
2023/02/20 01:18:31;;;;;;;5.07;3.27;;;7.80;99.90;;;;;;4911506;29;20455;-70
2023/02/20 01:20:57;;;;;;;6.53;4.30;;;7.70;99.90;;;;;;4924061;29;20503;-71
2023/02/20 01:23:23;;;;;;;6.20;3.87;;;7.80;99.90;;;;;;4939749;28;20281;-71
2023/02/20 01:25:49;;;;;;;4.80;3.63;;;7.80;99.90;;;;;;4920951;29;20715;-71
2023/02/20 01:28:14;;;;;;;5.80;4.20;;;7.80;99.90;;;;;;4915411;29;20427;-71
2023/02/20 01:30:40;;;;;;;3.90;3.40;;;7.70;99.90;;;;;;4927210;28;20227;-70
2023/02/20 01:33:08;;;;;;;5.97;3.87;;;7.70;99.90;;;;;;4928090;29;20360;-70
2023/02/20 01:35:34;;;;;;;4.70;3.17;;;7.80;99.90;;;;;;4907019;29;20470;-70
2023/02/20 01:38:05;;;;;;;7.87;3.73;;;7.70;99.90;;;;;;4940267;28;20477;-70
2023/02/20 01:40:32;;;;;;;6.10;3.60;;;7.60;99.90;;;;;;4924644;29;20460;-70
2023/02/20 01:43:00;;;;;;;4.80;3.33;;;7.70;99.90;;;;;;4914864;28;20499;-71
2023/02/20 01:45:32;;;;;;;4.90;3.40;;;7.80;99.90;;;;;;4928127;28;20465;-70
2023/02/20 01:47:58;;;;;;;9.93;4.37;;;7.90;99.90;;;;;;4924669;29;21016;-71
2023/02/20 01:50:29;;;;;;;4.03;3.10;;;7.80;99.90;;;;;;4927157;29;20473;-70
2023/02/20 01:53:01;;;;;;;6.10;3.53;;;7.80;99.90;;;;;;4922087;29;20878;-71
2023/02/20 01:55:34;;;;;;;7.40;3.27;;;7.90;99.90;;;;;;4929503;29;20451;-71
2023/02/20 01:58:18;;;;;;;7.77;3.47;;;8.00;99.90;;;;;;4924233;28;20998;-71
2023/02/20 02:00:44;;;;;;;5.20;3.07;;;8.00;99.90;;;;;;4909124;29;20833;-70
2023/02/20 02:03:17;;;;;;;6.10;3.17;;;8.00;99.90;;;;;;4926751;28;20467;-70
2023/02/20 02:05:47;;;;;;;3.40;3.03;;;7.90;99.90;;;;;;4943320;28;20939;-70
2023/02/20 02:08:15;;;;;;;7.50;3.20;;;7.80;99.90;;;;;;4935322;28;20482;-71
2023/02/20 02:10:58;;;;;;;4.37;2.93;;;7.50;99.90;;;;;;4926987;29;20461;-70
2023/02/20 02:13:24;;;;;;;5.63;3.43;;;7.40;99.90;;;;;;4931042;29;20449;-70
2023/02/20 02:16:06;;;;;;;4.77;3.40;;;7.40;99.90;;;;;;4908947;29;20511;-71
2023/02/20 02:18:41;;;;;;;4.23;2.90;;;7.30;99.90;;;;;;4927770;29;20454;-71
2023/02/20 02:21:44;;;;;;;5.00;3.47;;;7.30;99.90;;;;;;4924477;28;20963;-70
2023/02/20 02:24:49;;;;;;;6.27;3.63;;;7.30;99.90;;;;;;4922190;29;20451;-71
2023/02/20 02:27:46;;;;;;;13.67;3.67;;;7.40;99.90;;;;;;4925334;29;20543;-71
2023/02/20 02:30:18;;;;;;;8.77;3.37;;;7.40;99.90;;;;;;4930114;28;20459;-71
2023/02/20 02:33:25;;;;;;;7.30;3.57;;;7.40;99.90;;;;;;4928119;28;20558;-70
2023/02/20 02:36:05;;;;;;;5.97;4.10;;;7.30;99.90;;;;;;4946071;28;20455;-71
2023/02/20 02:38:59;;;;;;;5.83;3.60;;;7.20;99.90;;;;;;4917467;29;20451;-71
2023/02/20 02:41:41;;;;;;;10.17;3.80;;;7.10;99.90;;;;;;4909609;29;20491;-70
2023/02/20 02:44:45;;;;;;;4.97;3.20;;;7.00;99.90;;;;;;4952444;28;20522;-70
2023/02/20 02:47:21;;;;;;;14.03;4.00;;;7.00;99.90;;;;;;4919151;29;20459;-71
2023/02/20 02:50:09;;;;;;;6.43;3.87;;;6.90;99.90;;;;;;4925312;28;20502;-70
2023/02/20 02:52:47;;;;;;;4.03;2.77;;;6.90;99.90;;;;;;4914898;29;20830;-70
2023/02/20 02:55:17;;;;;;;6.27;3.90;;;6.90;99.90;;;;;;4944094;28;20474;-70
2023/02/20 02:57:43;;;;;;;6.40;3.37;;;7.20;99.90;;;;;;4923619;29;20455;-70
2023/02/20 03:00:15;;;;;;;6.27;3.23;;;7.10;99.90;;;;;;4921490;29;20486;-71
2023/02/20 03:03:07;;;;;;;3.83;3.17;;;7.00;99.90;;;;;;4932713;29;20238;-70
2023/02/20 03:06:08;;;;;;;5.80;3.77;;;7.10;99.90;;;;;;4927291;29;20519;-70
2023/02/20 03:08:59;;;;;;;4.33;3.03;;;7.30;99.90;;;;;;4919809;28;20512;-70
2023/02/20 03:11:29;;;;;;;5.37;3.83;;;7.50;99.90;;;;;;4923452;29;20459;-71
2023/02/20 03:16:54;;;;;;;4.53;2.93;;;7.70;99.90;;;;;;4919247;29;20452;-71
2023/02/20 03:19:50;;;;;;;3.47;2.97;;;7.70;99.90;;;;;;4941858;28;20490;-70
2023/02/20 03:22:29;;;;;;;4.60;3.10;;;7.80;99.90;;;;;;4912523;28;20502;-70
2023/02/20 03:25:15;;;;;;;9.73;3.53;;;7.70;99.90;;;;;;4924890;29;20567;-72
2023/02/20 03:27:58;;;;;;;4.67;2.60;;;7.60;99.90;;;;;;4928230;29;20458;-71
2023/02/20 03:30:27;;;;;;;8.13;3.10;;;7.50;99.90;;;;;;4928218;29;20453;-70
2023/02/20 03:44:11;;;;;;;10.67;3.23;;;7.20;99.90;;;;;;4928392;28;20464;-70
2023/02/20 03:46:39;;;;;;;3.07;2.57;;;7.30;99.90;;;;;;4908666;29;20459;-70
2023/02/20 03:49:13;;;;;;;2.83;2.50;;;7.30;99.90;;;;;;4905964;29;20484;-70
2023/02/20 03:51:43;;;;;;;5.37;2.93;;;7.20;99.90;;;;;;4926186;29;20479;-71
2023/02/20 03:54:18;;;;;;;6.17;3.43;;;7.20;99.90;;;;;;4924964;28;20538;-70
2023/02/20 03:56:54;;;;;;;3.33;2.87;;;7.10;99.90;;;;;;4935691;28;20464;-71
2023/02/20 03:59:20;;;;;;;4.73;3.63;;;7.00;99.90;;;;;;4921587;29;20501;-70
2023/02/20 04:01:51;;;;;;;7.07;3.17;;;7.00;99.90;;;;;;4904120;29;20465;-71
2023/02/20 04:04:24;;;;;;;2.80;2.20;;;7.10;99.90;;;;;;4917707;29;20234;-70
2023/02/20 04:06:51;;;;;;;5.33;2.90;;;7.20;99.90;;;;;;4942451;28;20446;-70
2023/02/20 04:09:26;;;;;;;7.07;2.53;;;7.20;99.90;;;;;;4933611;28;20870;-70
2023/02/20 04:12:02;;;;;;;2.90;2.60;;;7.20;99.90;;;;;;4928253;29;20480;-70
2023/02/20 04:14:31;;;;;;;5.47;2.43;;;7.20;99.90;;;;;;4918207;29;20474;-70
2023/02/20 04:17:03;;;;;;;4.47;3.20;;;7.20;99.90;;;;;;4936000;29;20519;-70
2023/02/20 04:19:29;;;;;;;5.53;2.50;;;7.20;99.90;;;;;;4933020;29;20474;-71
2023/02/20 04:22:00;;;;;;;3.60;2.97;;;7.20;99.90;;;;;;4941582;28;20559;-70
2023/02/20 04:24:59;;;;;;;2.90;2.30;;;7.40;99.90;;;;;;4950314;28;20493;-71
2023/02/20 04:27:28;;;;;;;3.20;2.10;;;7.50;99.90;;;;;;4911736;29;20454;-71
2023/02/20 04:29:56;;;;;;;4.80;3.07;;;7.60;99.90;;;;;;4941419;28;21006;-71
2023/02/20 04:32:21;;;;;;;4.57;3.20;;;7.60;99.90;;;;;;4930289;28;20463;-70
2023/02/20 04:34:48;;;;;;;5.37;3.40;;;7.60;99.90;;;;;;4907925;29;20222;-70
2023/02/20 04:37:17;;;;;;;3.53;2.93;;;7.40;99.90;;;;;;4938299;28;20497;-69
2023/02/20 04:39:43;;;;;;;5.93;3.37;;;7.40;99.90;;;;;;4930825;29;20493;-71
2023/02/20 04:42:09;;;;;;;4.00;2.37;;;7.40;99.90;;;;;;4927037;29;20977;-70
2023/02/20 04:44:36;;;;;;;5.23;2.90;;;7.40;99.90;;;;;;4917945;29;20463;-70
2023/02/20 04:47:06;;;;;;;8.63;3.30;;;7.30;99.90;;;;;;4947874;28;20503;-70
2023/02/20 04:49:33;;;;;;;4.67;2.63;;;7.20;99.90;;;;;;4912636;29;20451;-70
2023/02/20 04:52:01;;;;;;;4.40;2.20;;;7.20;99.90;;;;;;4944187;28;20507;-70
2023/02/20 04:54:27;;;;;;;5.27;2.73;;;7.30;99.90;;;;;;4923559;29;20474;-70
2023/02/20 04:56:53;;;;;;;3.10;2.47;;;7.40;99.90;;;;;;4929258;29;20475;-70
2023/02/20 04:59:20;;;;;;;4.47;3.30;;;7.50;99.90;;;;;;4951554;28;20236;-70
2023/02/20 05:01:48;;;;;;;6.17;3.00;;;7.60;99.90;;;;;;4930086;29;20883;-71
2023/02/20 05:04:20;;;;;;;6.03;3.10;;;7.60;99.90;;;;;;4928510;28;20471;-70
2023/02/20 05:06:49;;;;;;;3.37;3.07;;;7.60;99.90;;;;;;4927826;29;20486;-70
2023/02/20 05:09:14;;;;;;;4.60;3.20;;;7.60;99.90;;;;;;4924920;29;20484;-70
2023/02/20 05:11:40;;;;;;;6.10;3.53;;;7.60;99.90;;;;;;4938393;28;20490;-70
2023/02/20 05:14:06;;;;;;;3.03;2.70;;;7.60;99.90;;;;;;4927921;28;20319;-70
2023/02/20 05:16:32;;;;;;;4.73;3.30;;;7.60;99.90;;;;;;4929703;29;20825;-70
2023/02/20 05:18:59;;;;;;;4.53;3.03;;;7.50;99.90;;;;;;4926181;29;20232;-71
2023/02/20 05:24:11;;;;;;;3.60;3.30;;;7.50;99.90;;;;;;4939016;28;20543;-70
2023/02/20 05:26:37;;;;;;;4.00;3.23;;;7.50;99.90;;;;;;4919945;28;20462;-70
2023/02/20 05:29:03;;;;;;;4.43;2.93;;;7.50;99.90;;;;;;4923918;29;20452;-70
2023/02/20 05:31:28;;;;;;;6.77;3.17;;;7.50;99.90;;;;;;4931142;29;20312;-70
2023/02/20 05:33:54;;;;;;;3.57;3.27;;;7.40;99.90;;;;;;4916174;29;20467;-70
2023/02/20 05:36:19;;;;;;;4.07;3.17;;;7.40;99.90;;;;;;4927829;28;20246;-71
2023/02/20 05:38:47;;;;;;;4.87;3.27;;;7.40;99.90;;;;;;4930544;29;20227;-70
2023/02/20 05:41:16;;;;;;;3.10;2.80;;;7.30;99.90;;;;;;4931713;29;20301;-70
2023/02/20 05:43:42;;;;;;;4.90;2.97;;;7.20;99.90;;;;;;4915271;29;20467;-69
2023/02/20 05:46:08;;;;;;;4.47;3.00;;;7.20;99.90;;;;;;4907316;29;20536;-70
2023/02/20 05:48:33;;;;;;;4.23;3.10;;;7.10;99.90;;;;;;4923310;29;20254;-70
2023/02/20 05:50:59;;;;;;;4.20;3.50;;;7.10;99.90;;;;;;4924222;29;20282;-70
2023/02/20 05:53:29;;;;;;;4.63;3.07;;;6.80;99.90;;;;;;4926233;28;20640;-69
2023/02/20 05:55:54;;;;;;;7.57;4.23;;;6.40;99.90;;;;;;4927373;29;20270;-70
2023/02/20 05:58:20;;;;;;;6.03;3.20;;;6.40;99.90;;;;;;4925669;28;20442;-69
2023/02/20 06:00:46;;;;;;;5.40;3.10;;;6.20;99.90;;;;;;4927874;29;20697;-69
2023/02/20 06:03:13;;;;;;;5.37;3.60;;;6.20;99.90;;;;;;4916204;29;20674;-70
2023/02/20 06:05:39;;;;;;;6.03;3.53;;;6.20;99.90;;;;;;4921337;28;20231;-71
2023/02/20 06:08:05;;;;;;;4.47;3.13;;;6.20;99.90;;;;;;4942635;28;20494;-69
2023/02/20 06:10:31;;;;;;;6.20;3.93;;;6.30;99.90;;;;;;4941427;28;20227;-68
2023/02/20 06:12:56;;;;;;;4.97;3.37;;;6.30;99.90;;;;;;4929341;29;20528;-70
2023/02/20 06:15:22;;;;;;;11.63;3.37;;;6.30;99.90;;;;;;4947633;28;20230;-70
2023/02/20 06:17:48;;;;;;;4.73;3.60;;;6.30;99.90;;;;;;4919724;29;20230;-68
2023/02/20 06:20:14;;;;;;;5.40;3.30;;;6.30;99.90;;;;;;4922208;29;20218;-70
2023/02/20 06:22:40;;;;;;;5.20;3.63;;;6.30;99.90;;;;;;4923642;29;20722;-70
2023/02/20 06:25:06;;;;;;;5.73;3.60;;;6.30;99.90;;;;;;4927783;29;20497;-68
2023/02/20 06:27:32;;;;;;;7.80;3.40;;;6.30;99.90;;;;;;4921917;29;21045;-69
2023/02/20 06:29:57;;;;;;;4.83;3.07;;;6.30;99.90;;;;;;4923950;29;20258;-69
2023/02/20 06:32:23;;;;;;;5.70;3.60;;;6.20;99.90;;;;;;4923486;28;20227;-69
2023/02/20 06:34:49;;;;;;;8.13;3.93;;;6.30;99.90;;;;;;4897249;29;20701;-71
2023/02/20 06:37:15;;;;;;;6.37;3.90;;;6.30;99.90;;;;;;4918973;29;20220;-69
2023/02/20 06:39:44;;;;;;;6.13;4.30;;;6.20;99.90;;;;;;4917740;28;20478;-69
2023/02/20 06:42:10;;;;;;;5.20;3.57;;;6.10;99.90;;;;;;4923503;29;20229;-70
2023/02/20 06:44:36;;;;;;;5.40;4.17;;;6.10;99.90;;;;;;4925469;29;20509;-70
2023/02/20 06:47:07;;;;;;;4.57;3.27;;;6.10;99.90;;;;;;4900984;28;20490;-70
2023/02/20 06:49:34;;;;;;;7.37;4.13;;;6.10;99.90;;;;;;4941129;28;20468;-70
2023/02/20 06:52:00;;;;;;;7.07;4.17;;;6.10;99.90;;;;;;4899968;29;20519;-70
2023/02/20 06:54:25;;;;;;;15.17;4.47;;;6.10;99.90;;;;;;4920675;29;20459;-70
2023/02/20 06:56:51;;;;;;;6.53;4.70;;;6.10;99.90;;;;;;4919910;29;20636;-71
2023/02/20 06:59:17;;;;;;;5.30;3.40;;;6.10;99.90;;;;;;4921603;28;20235;-70
2023/02/20 07:01:43;;;;;;;9.40;3.63;;;6.00;99.90;;;;;;4916361;29;20280;-70
2023/02/20 07:04:35;;;;;;;8.07;4.83;;;6.00;99.90;;;;;;4916141;29;20772;-71
2023/02/20 07:07:01;;;;;;;4.20;3.07;;;6.00;99.90;;;;;;4920878;29;20218;-70
2023/02/20 07:09:27;;;;;;;5.90;3.60;;;6.00;99.90;;;;;;4914283;29;20466;-70
2023/02/20 07:11:53;;;;;;;4.47;3.10;;;6.10;99.90;;;;;;4918355;29;20506;-71
2023/02/20 07:14:20;;;;;;;5.80;3.27;;;6.20;99.90;;;;;;4935414;28;20232;-70
2023/02/20 07:16:46;;;;;;;6.20;4.27;;;6.20;99.90;;;;;;4919319;28;20463;-70
2023/02/20 07:19:11;;;;;;;4.77;3.00;;;6.20;99.90;;;;;;4919775;28;20463;-70
2023/02/20 07:21:37;;;;;;;7.30;4.30;;;6.30;99.90;;;;;;4933733;28;20618;-69
2023/02/20 07:24:03;;;;;;;5.43;4.10;;;6.30;99.90;;;;;;4921197;28;20242;-70
2023/02/20 07:26:30;;;;;;;7.97;4.50;;;6.40;99.90;;;;;;4941172;28;20292;-70
2023/02/20 07:28:57;;;;;;;4.80;3.87;;;6.40;99.90;;;;;;4919843;28;20483;-70
2023/02/20 07:31:24;;;;;;;6.53;4.07;;;6.50;99.90;;;;;;4920354;28;20493;-70
2023/02/20 07:33:49;;;;;;;5.27;4.77;;;6.60;99.90;;;;;;4924189;29;20460;-71
2023/02/20 07:36:15;;;;;;;4.10;3.37;;;6.70;99.90;;;;;;4923057;28;20455;-70
2023/02/20 07:38:41;;;;;;;5.23;4.20;;;6.70;99.90;;;;;;4929137;29;20239;-70
2023/02/20 07:41:08;;;;;;;4.73;3.13;;;6.80;99.90;;;;;;4936047;28;20463;-69
2023/02/20 07:43:34;;;;;;;5.47;4.00;;;6.80;99.90;;;;;;4916362;29;20219;-70
2023/02/20 07:45:59;;;;;;;6.60;3.70;;;6.80;99.90;;;;;;4926043;28;20479;-70
2023/02/20 07:48:25;;;;;;;6.53;3.90;;;6.90;99.90;;;;;;4907907;29;20230;-70
2023/02/20 07:50:51;;;;;;;4.17;3.70;;;6.90;99.90;;;;;;4931492;29;20608;-70
2023/02/20 07:53:19;;;;;;;4.43;3.60;;;7.00;99.90;;;;;;4921539;28;20372;-70
2023/02/20 07:55:45;;;;;;;8.90;4.57;;;7.10;99.90;;;;;;4944162;28;20475;-70
2023/02/20 07:58:10;;;;;;;6.03;3.43;;;7.10;99.90;;;;;;4929500;29;20458;-71
2023/02/20 08:00:37;;;;;;;7.60;4.03;;;7.20;99.90;;;;;;4932601;28;20238;-70
2023/02/20 08:03:02;;;;;;;4.90;3.67;;;7.20;99.90;;;;;;4928660;29;20273;-70
2023/02/20 08:05:29;;;;;;;6.17;4.10;;;7.30;99.90;;;;;;4926801;29;20517;-70
2023/02/20 08:07:55;;;;;;;6.67;5.00;;;7.40;99.90;;;;;;4927332;29;20227;-71
2023/02/20 08:10:24;;;;;;;7.70;4.73;;;7.40;99.90;;;;;;4925944;28;20490;-71
2023/02/20 08:12:51;;;;;;;12.17;6.00;;;7.50;99.90;;;;;;4940256;28;20479;-72
2023/02/20 08:15:17;;;;;;;8.30;5.00;;;7.60;99.90;;;;;;4921921;29;20478;-71
2023/02/20 08:17:43;;;;;;;15.23;6.90;;;7.60;99.90;;;;;;4927534;29;20454;-71
2023/02/20 08:20:10;;;;;;;9.27;5.53;;;7.70;99.90;;;;;;4905974;29;20507;-70
2023/02/20 08:22:37;;;;;;;16.47;9.63;;;7.70;99.90;;;;;;4923614;29;20550;-71
2023/02/20 08:25:04;;;;;;;25.77;9.23;;;7.90;99.90;;;;;;4917077;29;20554;-70
2023/02/20 08:27:30;;;;;;;20.47;9.87;;;7.90;99.90;;;;;;4937231;28;20470;-69
2023/02/20 08:29:57;;;;;;;14.03;8.60;;;7.90;99.90;;;;;;4927561;28;20481;-68
2023/02/20 08:32:22;;;;;;;14.53;9.40;;;8.10;99.90;;;;;;4930919;28;20506;-70
2023/02/20 08:34:48;;;;;;;16.47;9.50;;;8.10;99.90;;;;;;4942069;28;20503;-70
2023/02/20 08:37:14;;;;;;;20.40;9.20;;;8.10;99.90;;;;;;4921203;28;20338;-71
2023/02/20 08:39:40;;;;;;;13.73;7.00;;;8.20;99.90;;;;;;4909643;29;20310;-69
2023/02/20 08:42:05;;;;;;;12.63;8.00;;;8.20;99.90;;;;;;4926592;28;20227;-70
2023/02/20 08:44:31;;;;;;;9.17;6.70;;;8.20;99.90;;;;;;4928886;28;20461;-70
2023/02/20 08:46:57;;;;;;;9.60;6.97;;;8.20;99.90;;;;;;4929694;29;20231;-69
2023/02/20 08:49:23;;;;;;;13.20;7.80;;;8.20;99.90;;;;;;4923646;28;20219;-70
2023/02/20 08:51:53;;;;;;;13.93;6.97;;;8.20;99.90;;;;;;4927437;29;20228;-70
2023/02/20 08:54:19;;;;;;;12.73;8.03;;;8.20;99.90;;;;;;4944135;28;20438;-70
2023/02/20 08:56:45;;;;;;;10.20;5.87;;;8.20;99.90;;;;;;4939349;28;20712;-70
2023/02/20 08:59:10;;;;;;;14.37;7.87;;;8.20;99.90;;;;;;4945306;28;20227;-70
2023/02/20 09:01:39;;;;;;;14.53;8.87;;;8.10;99.90;;;;;;4923380;29;20227;-70
2023/02/20 09:04:05;;;;;;;17.57;10.40;;;8.20;99.90;;;;;;4926448;28;20227;-70
2023/02/20 09:06:30;;;;;;;18.63;12.33;;;8.20;99.90;;;;;;4920555;29;20464;-70
2023/02/20 09:08:56;;;;;;;18.53;9.87;;;8.30;99.90;;;;;;4929661;29;20694;-69
2023/02/20 09:11:21;;;;;;;18.10;9.30;;;8.50;99.90;;;;;;4928899;28;20232;-69
2023/02/20 09:13:48;;;;;;;17.03;8.73;;;8.60;99.90;;;;;;4929146;28;20226;-71
2023/02/20 09:16:16;;;;;;;13.00;7.53;;;8.80;99.90;;;;;;4920012;28;20224;-70
2023/02/20 09:18:43;;;;;;;17.47;8.83;;;9.00;99.90;;;;;;4927732;28;20478;-70
2023/02/20 09:21:11;;;;;;;15.07;7.57;;;9.10;99.90;;;;;;4914721;29;20519;-71
2023/02/20 09:23:37;;;;;;;16.10;8.37;;;9.30;99.90;;;;;;4910950;29;20471;-70
2023/02/20 09:26:03;;;;;;;16.93;7.73;;;9.30;99.90;;;;;;4930621;28;20464;-70
2023/02/20 09:28:29;;;;;;;15.30;7.63;;;9.40;99.90;;;;;;4910637;29;20451;-70
2023/02/20 09:30:56;;;;;;;14.23;7.90;;;9.40;99.90;;;;;;4922264;29;20459;-71
2023/02/20 09:33:22;;;;;;;14.00;9.27;;;9.60;99.90;;;;;;4944432;28;20228;-70
2023/02/20 09:35:50;;;;;;;11.50;7.33;;;9.70;99.90;;;;;;4921117;28;21109;-70
2023/02/20 09:38:16;;;;;;;18.10;7.93;;;9.90;99.90;;;;;;4911360;28;20463;-70
2023/02/20 09:40:45;;;;;;;18.10;9.60;;;9.90;99.90;;;;;;4929246;28;20985;-70
2023/02/20 09:43:16;;;;;;;16.67;8.17;;;10.30;99.90;;;;;;4926711;28;20853;-70
2023/02/20 09:45:50;;;;;;;16.20;9.37;;;10.40;99.90;;;;;;4950054;28;20462;-71
2023/02/20 09:48:45;;;;;;;15.17;8.63;;;10.60;99.90;;;;;;4954035;28;20471;-71
2023/02/20 09:51:17;;;;;;;16.87;10.30;;;10.70;99.90;;;;;;4926735;28;20482;-71
2023/02/20 09:54:01;;;;;;;46.53;26.07;;;10.90;99.90;;;;;;4924582;29;20459;-71
2023/02/20 09:56:36;;;;;;;53.83;29.80;;;10.80;99.90;;;;;;4927869;28;20461;-71
2023/02/20 09:59:18;;;;;;;31.67;19.53;;;11.00;99.90;;;;;;4924811;29;20462;-71
2023/02/20 10:02:07;;;;;;;16.80;12.10;;;11.10;99.90;;;;;;4924008;29;20871;-70
2023/02/20 10:04:43;;;;;;;12.00;7.00;;;11.20;99.90;;;;;;4925370;29;20459;-71
2023/02/20 10:07:40;;;;;;;14.10;7.60;;;11.20;99.90;;;;;;4912498;29;20475;-69
2023/02/20 10:10:28;;;;;;;9.87;6.53;;;11.60;99.90;;;;;;4905071;28;20487;-70
2023/02/20 10:13:32;;;;;;;9.70;6.30;;;11.60;99.90;;;;;;4927042;29;20491;-71
2023/02/20 10:16:14;;;;;;;11.63;6.33;;;11.80;99.90;;;;;;4922142;29;20511;-71
2023/02/20 10:18:40;;;;;;;13.27;7.73;;;11.80;99.90;;;;;;4920620;29;20855;-70
2023/02/20 10:21:10;;;;;;;11.30;6.83;;;11.80;99.90;;;;;;4920255;28;20479;-69
2023/02/20 10:23:56;;;;;;;11.97;6.67;;;11.70;99.90;;;;;;4920256;28;20299;-70
2023/02/20 10:26:28;;;;;;;9.50;6.27;;;12.10;99.90;;;;;;4920224;29;20454;-71
2023/02/20 10:28:57;;;;;;;10.70;6.27;;;12.30;99.90;;;;;;4923266;29;20479;-72
2023/02/20 10:31:28;;;;;;;16.53;7.30;;;12.50;99.90;;;;;;4926127;28;20477;-71
2023/02/20 10:34:08;;;;;;;11.10;6.80;;;12.60;99.90;;;;;;4925470;28;20482;-71
2023/02/20 10:36:40;;;;;;;14.00;9.50;;;12.50;99.90;;;;;;4922506;28;21035;-71
2023/02/20 10:39:12;;;;;;;13.53;10.23;;;12.80;99.90;;;;;;4925511;29;20563;-71
2023/02/20 10:41:53;;;;;;;16.20;10.77;;;12.70;99.90;;;;;;4921725;29;20900;-71
2023/02/20 10:44:57;;;;;;;13.13;8.10;;;12.80;99.90;;;;;;4922900;29;20491;-71
2023/02/20 10:47:31;;;;;;;8.97;6.20;;;13.00;99.90;;;;;;4919456;29;20451;-71
2023/02/20 10:50:17;;;;;;;9.10;6.00;;;13.00;99.90;;;;;;4922800;28;20509;-70
2023/02/20 10:52:51;;;;;;;8.90;6.63;;;13.30;99.90;;;;;;4919086;28;20485;-71
2023/02/20 10:55:24;;;;;;;9.70;6.63;;;13.50;99.90;;;;;;4935745;28;20513;-71
2023/02/20 10:58:07;;;;;;;5.97;5.13;;;13.40;99.90;;;;;;4941553;28;20550;-71
2023/02/20 11:00:44;;;;;;;5.20;4.57;;;13.40;99.90;;;;;;4922479;29;20467;-73
2023/02/20 11:03:26;;;;;;;9.87;5.00;;;13.40;99.90;;;;;;4920419;29;20467;-71
2023/02/20 11:05:55;;;;;;;7.00;5.60;;;13.70;99.90;;;;;;4912732;29;20547;-72
2023/02/20 11:08:21;;;;;;;7.17;4.60;;;13.70;99.90;;;;;;4928791;28;20463;-71
2023/02/20 11:10:48;;;;;;;7.63;5.00;;;13.70;99.90;;;;;;4905224;29;20586;-71
2023/02/20 11:13:22;;;;;;;7.17;4.40;;;13.80;99.90;;;;;;4924345;28;20255;-71
2023/02/20 11:15:51;;;;;;;7.63;5.40;;;13.80;99.90;;;;;;4947620;28;20475;-71
2023/02/20 11:18:29;;;;;;;8.23;4.37;;;14.00;99.90;;;;;;4922014;28;20961;-71
2023/02/20 11:20:55;;;;;;;5.90;5.13;;;14.10;99.90;;;;;;4939939;28;20483;-71
2023/02/20 11:23:33;;;;;;;8.20;4.53;;;14.00;99.90;;;;;;4948367;28;20448;-73
2023/02/20 11:26:20;;;;;;;8.20;4.57;;;14.00;99.90;;;;;;4946978;28;20276;-72
2023/02/20 11:29:16;;;;;;;4.70;3.90;;;14.10;99.90;;;;;;4921271;28;20475;-73
2023/02/20 11:31:43;;;;;;;6.83;4.60;;;14.20;99.90;;;;;;4910930;29;20499;-71
2023/02/20 11:34:29;;;;;;;4.07;3.63;;;14.20;99.90;;;;;;4925913;28;20495;-72
2023/02/20 11:37:04;;;;;;;6.83;4.10;;;14.30;99.90;;;;;;4941906;28;20589;-69
2023/02/20 11:39:32;;;;;;;6.73;4.43;;;14.30;99.90;;;;;;4938327;28;20492;-71
2023/02/20 11:42:11;;;;;;;8.47;4.80;;;14.30;99.90;;;;;;4904931;29;21048;-71
2023/02/20 11:44:37;;;;;;;3.73;3.00;;;14.40;99.90;;;;;;4921769;29;20459;-71
2023/02/20 11:47:08;;;;;;;5.93;3.87;;;14.50;99.90;;;;;;4908746;29;20510;-70
2023/02/20 11:49:34;;;;;;;5.30;4.10;;;14.40;99.90;;;;;;4919014;29;20714;-72
2023/02/20 11:52:13;;;;;;;6.10;4.10;;;14.40;99.90;;;;;;4926736;29;20487;-71
2023/02/20 11:54:39;;;;;;;6.27;5.43;;;14.40;99.90;;;;;;4909152;29;20228;-71
2023/02/20 11:57:22;;;;;;;9.03;5.00;;;14.60;99.90;;;;;;4922157;28;20476;-72
2023/02/20 12:00:14;;;;;;;6.23;4.00;;;14.60;99.90;;;;;;4918043;29;20228;-71
2023/02/20 12:02:54;;;;;;;4.50;3.53;;;14.60;99.90;;;;;;4913064;29;20546;-71
2023/02/20 12:05:29;;;;;;;4.67;3.93;;;14.70;99.90;;;;;;4923724;28;20517;-71
2023/02/20 12:07:58;;;;;;;6.73;3.57;;;14.60;99.90;;;;;;4918837;29;20464;-70
2023/02/20 12:10:43;;;;;;;10.87;4.07;;;14.70;99.90;;;;;;4924172;28;20538;-72
2023/02/20 12:13:14;;;;;;;5.60;3.53;;;14.70;99.90;;;;;;4938486;28;20595;-71
2023/02/20 12:15:40;;;;;;;5.37;3.60;;;14.70;99.90;;;;;;4946122;28;20485;-71
2023/02/20 12:18:18;;;;;;;8.47;3.47;;;14.80;99.90;;;;;;4926123;28;20481;-72
2023/02/20 12:20:51;;;;;;;5.00;3.73;;;14.90;99.90;;;;;;4922395;29;20575;-73
2023/02/20 12:23:26;;;;;;;3.60;2.87;;;14.90;99.90;;;;;;4910073;29;20477;-71
2023/02/20 12:25:58;;;;;;;5.03;3.70;;;14.90;99.90;;;;;;4936958;28;20465;-71
2023/02/20 12:28:33;;;;;;;6.47;3.50;;;15.10;99.90;;;;;;4920855;28;20462;-72
2023/02/20 12:30:58;;;;;;;5.03;3.40;;;15.10;99.90;;;;;;4940969;28;20504;-72
2023/02/20 12:34:01;;;;;;;4.00;2.70;;;15.00;99.90;;;;;;4922841;28;20459;-70
2023/02/20 12:36:39;;;;;;;4.13;3.60;;;14.90;99.90;;;;;;4923927;29;20587;-72
2023/02/20 12:39:10;;;;;;;4.80;3.00;;;14.90;99.90;;;;;;4925740;29;20471;-72
2023/02/20 12:42:11;;;;;;;4.40;3.60;;;15.10;99.90;;;;;;4948342;28;20483;-71
2023/02/20 12:44:48;;;;;;;9.03;4.00;;;15.10;99.90;;;;;;4926746;29;20455;-71
2023/02/20 12:47:16;;;;;;;5.00;3.20;;;15.00;99.90;;;;;;4942197;28;20466;-71
2023/02/20 12:50:09;;;;;;;3.50;3.03;;;15.00;99.90;;;;;;4922644;28;20478;-72
2023/02/20 12:52:56;;;;;;;3.20;2.60;;;15.10;99.90;;;;;;4945321;28;20479;-71
2023/02/20 12:56:01;;;;;;;5.20;3.83;;;15.20;99.90;;;;;;4925868;28;20816;-72
2023/02/20 12:58:39;;;;;;;3.07;2.80;;;15.40;99.90;;;;;;4931574;28;20539;-71
2023/02/20 13:01:09;;;;;;;4.13;2.47;;;15.30;99.90;;;;;;4921509;29;20482;-72
2023/02/20 13:03:56;;;;;;;3.57;2.43;;;15.20;99.90;;;;;;4924780;29;20542;-72
2023/02/20 13:06:29;;;;;;;2.33;2.13;;;15.10;99.90;;;;;;4921761;28;20469;-70
2023/02/20 13:09:04;;;;;;;3.23;2.60;;;15.20;99.90;;;;;;4921409;28;20503;-71
2023/02/20 13:11:37;;;;;;;5.67;3.43;;;15.10;99.90;;;;;;4925012;28;20933;-72
2023/02/20 13:14:36;;;;;;;6.77;5.67;;;15.30;99.90;;;;;;4943800;28;20493;-70
2023/02/20 13:17:20;;;;;;;10.20;7.20;;;15.40;99.90;;;;;;4950532;28;20550;-69
2023/02/20 13:19:57;;;;;;;16.00;9.17;;;15.40;99.90;;;;;;4925769;29;20547;-72
2023/02/20 13:22:22;;;;;;;19.97;10.27;;;15.50;99.90;;;;;;4931511;29;20462;-71
2023/02/20 13:24:48;;;;;;;20.47;12.27;;;15.40;99.90;;;;;;4926162;28;20499;-72
2023/02/20 13:27:31;;;;;;;19.83;11.37;;;15.60;99.90;;;;;;4928612;28;20247;-71
2023/02/20 13:30:00;;;;;;;50.23;23.37;;;15.70;99.90;;;;;;4932738;28;20310;-70